Time;durP1;ratioP1;P1;durP2;ratioP2;P2;SDS_P1;SDS_P2;PMS_P1;PMS_P2;Temp;Humidity;BMP_temperature;BMP_pressure;BME280_temperature;BME280_humidity;BME280_pressure;Samples;Min_cycle;Max_cycle;Signal;HPM_P1;HPM_P2
2021/12/05 00:23:49;;;;;;;;;;;;;;;-3.27;72.80;99205.12;1766328;80;20434;-59
2021/12/05 00:26:18;;;;;;;21.40;14.45;;;;;;;-3.32;73.21;99209.37;1748815;80;20473;-59
2021/12/05 00:34:35;;;;;;;26.03;16.63;;;;;;;-3.38;73.65;99204.20;1756755;80;21384;-59
2021/12/05 00:38:23;;;;;;;24.30;16.30;;;;;;;-3.41;73.50;99199.91;1751730;80;21557;-61
2021/12/05 00:42:37;;;;;;;31.45;18.52;;;;;;;-3.49;73.23;99197.70;1752124;80;20428;-61
2021/12/05 00:47:41;;;;;;;32.38;18.10;;;;;;;-3.61;72.84;99202.77;1750581;80;21424;-60
2021/12/05 00:50:19;;;;;;;29.85;18.65;;;;;;;-3.66;72.89;99200.15;1745692;80;21693;-59
2021/12/05 00:55:42;;;;;;;27.73;18.30;;;;;;;-3.70;73.05;99212.98;1742354;80;21523;-61
2021/12/05 01:04:02;;;;;;;31.27;18.98;;;;;;;-3.75;73.03;99233.08;1753838;80;21557;-60
2021/12/05 01:11:49;;;;;;;28.23;16.90;;;;;;;-3.79;73.60;99239.45;1733958;82;21754;-60
2021/12/05 01:16:31;;;;;;;27.55;17.95;;;;;;;-3.77;73.09;99237.75;1717358;82;21443;-61
2021/12/05 01:19:00;;;;;;;30.97;17.92;;;;;;;-3.78;73.03;99233.47;1732918;82;20956;-60
2021/12/05 01:21:28;;;;;;;33.65;17.57;;;;;;;-3.75;73.25;99240.78;1734814;82;21502;-60
2021/12/05 01:24:06;;;;;;;29.75;16.55;;;;;;;-3.73;73.40;99232.66;1732168;81;22125;-60
2021/12/05 01:26:37;;;;;;;29.77;18.17;;;;;;;-3.73;73.29;99240.77;1676395;83;21471;-58
2021/12/05 01:29:04;;;;;;;30.75;19.60;;;;;;;-3.72;73.72;99230.95;1732459;81;21466;-61
2021/12/05 01:31:57;;;;;;;28.62;17.20;;;;;;;-3.73;73.71;99221.10;1734159;80;21603;-60
2021/12/05 01:34:35;;;;;;;25.75;16.73;;;;;;;-3.75;73.64;99214.21;1731258;82;21502;-60
2021/12/05 01:42:32;;;;;;;27.15;15.95;;;;;;;-3.86;72.39;99235.98;1734825;80;21531;-59
2021/12/05 02:01:03;;;;;;;23.38;13.98;;;;;;;-4.01;71.53;99239.67;1734934;80;21522;-59
2021/12/05 02:07:48;;;;;;;24.37;13.95;;;;;;;-4.01;71.82;99239.67;1721822;80;21837;-58
2021/12/05 02:08:47;;;;;;;18.42;12.90;;;;;;;-4.00;71.98;99222.14;1741407;80;21388;-59
2021/12/05 02:11:09;;;;;;;22.90;14.47;;;;;;;-4.01;72.34;99209.73;1753347;80;21503;-59
2021/12/05 02:35:29;;;;;;;22.75;15.48;;;;;;;-4.04;72.45;99236.66;1755724;80;21124;-60
2021/12/05 02:41:29;;;;;;;23.00;15.85;;;;;;;-4.04;72.04;99225.53;1680574;84;21084;-60
2021/12/05 02:43:14;;;;;;;24.60;15.10;;;;;;;-4.06;71.88;99219.09;1729768;80;21870;-60
2021/12/05 02:45:45;;;;;;;22.42;15.55;;;;;;;-4.04;71.80;99213.98;1753991;80;21088;-60
2021/12/05 02:48:15;;;;;;;25.25;15.75;;;;;;;-4.06;71.84;99215.24;1743301;80;21562;-60
2021/12/05 02:50:42;;;;;;;22.30;15.00;;;;;;;-4.06;71.92;99213.95;1756031;80;21505;-59
2021/12/05 02:53:28;;;;;;;21.07;14.78;;;;;;;-4.07;71.55;99204.52;1752607;80;21521;-60
2021/12/05 02:55:48;;;;;;;20.25;13.85;;;;;;;-4.10;71.51;99210.93;1749842;80;21816;-59
2021/12/05 02:58:35;;;;;;;19.48;12.68;;;;;;;-4.13;71.33;99202.75;1729914;80;21470;-60
2021/12/05 03:01:38;;;;;;;23.00;14.87;;;;;;;-4.15;71.52;99201.88;1747947;80;21589;-60
2021/12/05 03:03:20;;;;;;;21.02;13.88;;;;;;;-4.16;71.77;99195.48;1716634;80;21443;-60
2021/12/05 03:05:53;;;;;;;20.20;13.40;;;;;;;-4.18;72.16;99186.47;1757672;80;21042;-59
2021/12/05 03:08:19;;;;;;;20.32;13.65;;;;;;;-4.18;72.09;99189.44;1754962;80;21764;-60
2021/12/05 03:10:47;;;;;;;;;;;;;;;-4.20;72.10;99197.16;1754528;80;21685;-60
2021/12/05 03:13:14;;;;;;;21.95;14.28;;;;;;;-4.23;72.17;99188.13;1745173;80;20414;-60
2021/12/05 03:15:41;;;;;;;26.02;14.35;;;;;;;-4.24;72.26;99189.39;1739260;80;20946;-59
2021/12/05 03:18:08;;;;;;;23.35;16.02;;;;;;;-4.27;72.40;99188.09;1754075;80;21534;-60
2021/12/05 03:20:35;;;;;;;18.17;13.43;;;;;;;-4.27;72.56;99182.53;1757818;80;25742;-60
2021/12/05 03:23:03;;;;;;;22.82;15.15;;;;;;;-4.31;72.53;99182.92;1744329;80;21475;-60
2021/12/05 03:25:32;;;;;;;25.62;16.70;;;;;;;-4.30;72.66;99176.92;1752167;80;21419;-61
2021/12/05 03:28:00;;;;;;;23.47;16.07;;;;;;;-4.26;73.06;99176.97;1734615;80;21494;-60
2021/12/05 03:30:27;;;;;;;22.77;16.00;;;;;;;-4.27;72.96;99170.98;1747314;80;21503;-59
2021/12/05 03:32:56;;;;;;;22.05;16.12;;;;;;;-4.26;73.13;99166.70;1750057;80;21491;-60
2021/12/05 03:35:27;;;;;;;22.67;16.48;;;;;;;-4.27;73.02;99172.70;1757480;80;21392;-59
2021/12/05 03:37:55;;;;;;;27.10;16.60;;;;;;;-4.31;72.53;99166.67;1761291;80;21440;-61
2021/12/05 03:40:24;;;;;;;;;;;;;;;-4.36;72.54;99160.19;1763464;80;21562;-59
2021/12/05 03:42:52;;;;;;;19.32;13.88;;;;;;;-4.35;72.82;99158.08;1750244;80;20467;-59
2021/12/05 03:45:24;;;;;;;25.82;14.90;;;;;;;-4.32;73.38;99152.95;1738190;80;21820;-59
2021/12/05 03:47:51;;;;;;;22.50;14.53;;;;;;;-4.28;73.24;99155.55;1748679;80;21478;-59
2021/12/05 03:50:18;;;;;;;22.25;14.80;;;;;;;-4.30;73.30;99149.12;1744446;80;21538;-60
2021/12/05 03:52:50;;;;;;;25.35;15.78;;;;;;;-4.34;72.98;99157.64;1751582;80;21483;-60
2021/12/05 03:55:18;;;;;;;24.45;14.58;;;;;;;-4.38;72.69;99158.03;1746930;80;21029;-60
2021/12/05 03:57:45;;;;;;;23.45;13.98;;;;;;;-4.42;72.60;99153.72;1759483;80;21802;-60
2021/12/05 04:00:19;;;;;;;;;;;;;;;-4.43;72.42;99157.55;1739720;80;21451;-60
2021/12/05 04:02:51;;;;;;;24.77;14.93;;;;;;;-4.47;72.30;99149.39;1748543;80;20425;-61
2021/12/05 04:05:20;;;;;;;25.77;15.03;;;;;;;-4.51;72.47;99145.94;1752203;80;21539;-61
2021/12/05 04:07:49;;;;;;;27.65;15.40;;;;;;;-4.49;73.07;99141.67;1761443;80;21597;-59
2021/12/05 04:10:19;;;;;;;30.30;16.23;;;;;;;-4.42;73.35;99152.44;1751706;80;21597;-60
2021/12/05 04:12:47;;;;;;;23.80;15.83;;;;;;;-4.40;73.52;99153.31;1748787;80;21644;-61
2021/12/05 04:15:14;;;;;;;23.30;16.05;;;;;;;-4.36;73.37;99158.91;1758743;80;21586;-60
2021/12/05 04:17:42;;;;;;;22.27;14.38;;;;;;;-4.36;73.46;99161.47;1759238;80;21462;-60
2021/12/05 04:20:11;;;;;;;23.38;15.03;;;;;;;-4.34;73.70;99162.78;1752045;80;21479;-60
2021/12/05 04:22:39;;;;;;;25.50;15.65;;;;;;;-4.32;73.74;99162.36;1760964;80;21748;-61
2021/12/05 04:25:10;;;;;;;23.57;14.68;;;;;;;-4.32;73.37;99170.91;1759006;80;21518;-60
2021/12/05 04:27:39;;;;;;;21.80;15.45;;;;;;;-4.33;73.79;99171.78;1760412;80;21034;-60
2021/12/05 04:30:09;;;;;;;23.73;13.98;;;;;;;-4.35;73.65;99172.59;1751614;80;21466;-61
2021/12/05 04:32:36;;;;;;;22.40;14.33;;;;;;;-4.35;73.20;99177.73;1762503;80;21493;-60
2021/12/05 04:35:04;;;;;;;23.15;14.65;;;;;;;-4.34;73.27;99183.31;1760051;80;21848;-61
2021/12/05 04:37:32;;;;;;;19.05;13.28;;;;;;;-4.36;72.80;99183.72;1765607;80;21515;-60
2021/12/05 04:40:00;;;;;;;19.85;14.10;;;;;;;-4.36;72.67;99177.30;1768434;80;21491;-60
2021/12/05 04:42:27;;;;;;;18.70;13.03;;;;;;;-4.38;72.36;99186.27;1758151;80;26721;-62
2021/12/05 04:44:54;;;;;;;18.65;12.60;;;;;;;-4.41;72.40;99183.66;1761951;80;21533;-59
2021/12/05 04:47:21;;;;;;;20.40;14.33;;;;;;;-4.41;72.03;99187.94;1761107;80;21444;-60
2021/12/05 04:49:49;;;;;;;22.67;14.63;;;;;;;-4.46;71.80;99195.61;1759972;80;21013;-60
2021/12/05 04:52:16;;;;;;;23.57;15.30;;;;;;;-4.47;71.53;99200.72;1765227;80;21526;-61
2021/12/05 04:54:43;;;;;;;22.67;15.53;;;;;;;-4.51;71.77;99190.41;1764268;80;21534;-60
2021/12/05 04:57:11;;;;;;;21.30;14.63;;;;;;;-4.50;71.51;99193.86;1761960;80;21427;-60
2021/12/05 04:59:44;;;;;;;;;;;;;;;-4.54;71.21;99186.55;1759176;80;21865;-60
2021/12/05 05:02:07;;;;;;;22.02;13.83;;;;;;;-4.57;71.15;99191.63;1752092;80;20440;-59
2021/12/05 05:04:42;;;;;;;;;;;;;;;-4.58;71.15;99203.16;1754288;80;21583;-60
2021/12/05 05:07:06;;;;;;;21.15;13.18;;;;;;;-4.60;71.75;99201.00;1767195;80;20421;-60
2021/12/05 05:09:33;;;;;;;23.42;13.40;;;;;;;-4.62;72.31;99207.39;1764713;80;20974;-60
2021/12/05 05:12:00;;;;;;;18.57;12.80;;;;;;;-4.60;72.95;99204.42;1760460;80;21774;-60
2021/12/05 05:14:28;;;;;;;18.98;12.93;;;;;;;-4.55;73.29;99203.20;1759161;80;21534;-60
2021/12/05 05:16:55;;;;;;;20.77;13.95;;;;;;;-4.53;73.54;99198.95;1759742;80;21913;-60
2021/12/05 05:19:27;;;;;;;20.08;13.15;;;;;;;-4.52;73.44;99207.95;1766556;80;21415;-60
2021/12/05 05:43:51;;;;;;;18.98;13.10;;;;;;;-4.47;71.91;99199.00;1756734;80;21053;-60
2021/12/05 05:46:18;;;;;;;;;;;;;;;-4.49;71.87;99201.98;1750176;80;21539;-60
2021/12/05 05:48:59;;;;;;;19.55;12.85;;;;;;;-4.51;71.96;99207.52;1757352;80;20443;-60
2021/12/05 05:51:22;;;;;;;19.75;12.68;;;;;;;-4.51;72.23;99216.50;1762628;80;22176;-60
2021/12/05 05:53:49;;;;;;;18.77;12.05;;;;;;;-4.52;72.42;99219.50;1757676;80;21526;-60
2021/12/05 05:56:23;;;;;;;21.97;12.88;;;;;;;-4.49;72.49;99210.96;1762395;80;21506;-61
2021/12/05 05:58:59;;;;;;;18.62;13.05;;;;;;;-4.51;72.57;99213.94;1761436;80;21561;-60
2021/12/05 06:01:41;;;;;;;22.10;14.43;;;;;;;-4.51;72.85;99222.91;1747252;79;20990;-59
2021/12/05 06:03:47;;;;;;;25.55;15.18;;;;;;;-4.52;72.56;99224.63;1757959;80;21913;-59
2021/12/05 06:06:15;;;;;;;24.77;15.32;;;;;;;-4.51;72.50;99215.22;1750614;79;21617;-59
2021/12/05 06:08:43;;;;;;;24.00;15.05;;;;;;;-4.54;72.15;99221.19;1752716;80;21431;-60
2021/12/05 06:11:13;;;;;;;22.17;13.70;;;;;;;-4.57;72.12;99218.58;1754554;80;21459;-60
2021/12/05 06:13:40;;;;;;;20.12;13.32;;;;;;;-4.52;72.62;99221.17;1756392;80;21598;-60
2021/12/05 06:16:11;;;;;;;16.23;12.23;;;;;;;-4.44;72.87;99217.45;1756322;80;21831;-60
2021/12/05 06:18:40;;;;;;;23.35;13.15;;;;;;;-4.38;72.93;99211.94;1752776;80;21526;-59
2021/12/05 06:21:08;;;;;;;20.52;13.60;;;;;;;-4.32;73.04;99213.27;1751698;80;21467;-60
2021/12/05 06:23:36;;;;;;;18.80;13.13;;;;;;;-4.25;72.84;99217.20;1758674;80;21515;-59
2021/12/05 06:26:02;;;;;;;;;;;;;;;-4.21;73.08;99212.10;1754268;80;21665;-60
2021/12/05 06:28:35;;;;;;;20.30;13.20;;;;;;;-4.14;73.60;99206.63;1739598;80;21753;-60
2021/12/05 06:47:38;;;;;;;24.67;14.05;;;;;;;-3.62;73.98;99231.44;1745374;80;21518;-57
2021/12/05 06:50:06;;;;;;;23.87;14.70;;;;;;;-3.53;74.00;99233.23;1743200;80;21637;-57
2021/12/05 06:52:33;;;;;;;21.20;13.08;;;;;;;-3.47;74.10;99237.13;1750737;80;21573;-58
2021/12/05 06:55:00;;;;;;;15.00;10.05;;;;;;;-3.41;74.71;99243.62;1753957;80;22072;-58
2021/12/05 06:57:28;;;;;;;21.48;14.83;;;;;;;-3.31;74.84;99238.11;1752045;80;21518;-58
2021/12/05 06:59:55;;;;;;;24.45;15.35;;;;;;;-3.27;74.60;99246.27;1749547;80;26138;-58
2021/12/05 07:02:23;;;;;;;24.30;15.72;;;;;;;-3.23;74.34;99248.44;1734618;80;21439;-58
2021/12/05 07:07:24;;;;;;;20.05;14.23;;;;;;;-3.18;74.11;99245.48;1763510;80;21778;-59
2021/12/05 07:09:49;;;;;;;21.30;15.10;;;;;;;-3.15;74.16;99252.77;1750176;80;21546;-55
2021/12/05 07:14:55;;;;;;;21.25;14.35;;;;;;;-3.01;74.71;99259.73;1756049;80;21490;-56
2021/12/05 07:20:09;;;;;;;22.30;14.53;;;;;;;-2.81;74.56;99252.09;1749287;80;22138;-57
2021/12/05 07:22:39;;;;;;;22.67;14.20;;;;;;;-2.72;74.52;99254.72;1763635;80;21577;-57
2021/12/05 07:25:29;;;;;;;22.50;14.58;;;;;;;-2.66;74.34;99254.73;1756999;80;21115;-55
2021/12/05 07:43:40;;;;;;;20.80;14.98;;;;;;;-2.09;74.55;99257.52;1765935;79;21881;-56
2021/12/05 07:46:07;;;;;;;24.47;15.85;;;;;;;-2.03;74.45;99257.52;1757673;79;21785;-58
2021/12/05 07:48:37;;;;;;;46.37;27.73;;;;;;;-1.96;74.36;99261.83;1767393;80;21483;-58
2021/12/05 07:54:02;;;;;;;28.70;19.05;;;;;;;-1.80;74.11;99263.13;1763250;80;21514;-57
2021/12/05 07:57:10;;;;;;;28.50;17.32;;;;;;;-1.71;73.94;99260.97;1757232;80;21411;-58
2021/12/05 07:59:01;;;;;;;23.40;17.40;;;;;;;-1.67;73.73;99267.88;1741036;80;21554;-57
2021/12/05 08:15:18;;;;;;;20.57;14.80;;;;;;;-1.22;73.02;99282.48;1717610;80;21507;-58
2021/12/05 08:17:51;;;;;;;20.60;14.40;;;;;;;-1.11;72.84;99282.88;1695487;82;22266;-58
2021/12/05 08:20:13;;;;;;;19.12;13.88;;;;;;;-1.02;72.60;99279.00;1720995;81;21594;-60
2021/12/05 08:22:41;;;;;;;19.65;15.13;;;;;;;-0.92;72.14;99282.01;1709480;81;21586;-60
2021/12/05 08:25:14;;;;;;;22.60;14.80;;;;;;;-0.83;71.87;99274.25;1722153;80;21699;-59
2021/12/05 08:27:46;;;;;;;20.02;14.93;;;;;;;-0.83;71.87;99274.25;1696600;82;21934;-57
2021/12/05 08:30:16;;;;;;;20.08;14.03;;;;;;;-0.75;71.61;99270.76;1687024;82;21452;-56
2021/12/05 08:33:09;;;;;;;18.45;14.63;;;;;;;-0.71;71.99;99266.03;1704814;81;21577;-57
2021/12/05 08:38:48;;;;;;;23.20;14.15;;;;;;;-0.54;72.19;99262.95;1699758;82;21809;-59
2021/12/05 08:46:15;;;;;;;21.48;16.97;;;;;;;-0.33;71.48;99268.45;1697929;83;21096;-57
2021/12/05 09:26:53;;;;;;;31.35;20.80;;;;;;;2.23;67.75;99241.33;1724571;81;21485;-60
2021/12/05 09:40:27;;;;;;;21.20;16.23;;;;;;;4.20;60.34;99231.02;1726211;82;21555;-59
2021/12/05 09:51:33;;;;;;;30.90;23.27;;;;;;;4.72;57.78;99224.54;1718394;81;21095;-60
2021/12/05 10:12:59;;;;;;;31.15;23.80;;;;;;;5.95;54.65;99232.89;1749191;81;21734;-60
2021/12/05 10:15:33;;;;;;;27.75;22.52;;;;;;;6.20;54.19;99236.88;1743536;81;21412;-60
2021/12/05 10:38:17;;;;;;;28.85;20.85;;;;;;;6.17;50.53;99258.31;1752836;79;21492;-59
2021/12/05 10:41:02;;;;;;;29.75;21.40;;;;;;;6.16;50.50;99260.50;1745056;81;21803;-59
2021/12/05 10:43:28;;;;;;;29.80;22.90;;;;;;;5.94;50.75;99258.53;1752067;80;21581;-59
2021/12/05 10:46:08;;;;;;;29.23;21.90;;;;;;;5.72;51.15;99253.55;1735386;80;21653;-59
2021/12/05 10:48:45;;;;;;;29.98;20.68;;;;;;;5.62;51.43;99249.89;1741015;81;21065;-60
2021/12/05 10:51:24;;;;;;;23.35;18.77;;;;;;;5.56;51.33;99258.36;1744312;80;21464;-59
2021/12/05 10:53:57;;;;;;;18.77;16.07;;;;;;;5.48;51.30;99259.85;1736800;80;21583;-60
2021/12/05 10:56:33;;;;;;;20.70;16.45;;;;;;;5.32;50.37;99255.98;1746058;81;21408;-59
2021/12/05 10:59:11;;;;;;;15.93;13.88;;;;;;;5.09;49.60;99249.64;1748445;80;21570;-60
2021/12/05 11:01:57;;;;;;;19.42;15.05;;;;;;;4.84;50.05;99250.28;1734467;80;21467;-59
2021/12/05 11:04:36;;;;;;;18.80;14.87;;;;;;;4.56;49.94;99250.12;1742038;81;21420;-59
2021/12/05 11:07:08;;;;;;;18.70;13.55;;;;;;;4.36;50.19;99244.54;1739096;81;22022;-58
2021/12/05 11:09:50;;;;;;;19.42;13.60;;;;;;;4.10;50.48;99244.69;1753903;80;21411;-59
2021/12/05 11:12:20;;;;;;;18.62;14.40;;;;;;;3.88;50.61;99237.80;1756813;80;21447;-58
2021/12/05 11:14:55;;;;;;;18.55;14.03;;;;;;;3.63;50.18;99225.78;1754099;80;21562;-60
2021/12/05 11:17:28;;;;;;;18.98;14.70;;;;;;;3.37;50.79;99232.40;1746095;80;20947;-61
2021/12/05 11:21:46;;;;;;;19.50;16.32;;;;;;;3.17;51.82;99226.73;1796200;79;23215;-59
2021/12/05 11:24:13;;;;;;;22.42;17.02;;;;;;;2.98;52.09;99229.67;1760448;80;20953;-59
2021/12/05 11:26:43;;;;;;;20.05;16.70;;;;;;;2.86;52.69;99230.77;1758467;79;22080;-58
2021/12/05 11:29:10;;;;;;;19.45;15.13;;;;;;;2.77;52.91;99230.92;1763275;80;21532;-59
2021/12/05 11:31:40;;;;;;;19.70;15.45;;;;;;;2.68;53.58;99229.33;1754498;80;25786;-57
2021/12/05 11:34:07;;;;;;;21.40;16.05;;;;;;;2.62;53.86;99226.85;1766330;80;21495;-58
2021/12/05 11:36:37;;;;;;;21.25;15.98;;;;;;;2.45;54.27;99230.15;1776834;80;20957;-59
2021/12/05 11:39:24;;;;;;;20.60;16.27;;;;;;;2.28;54.25;99231.30;1760590;80;22133;-59
2021/12/05 11:41:52;;;;;;;25.23;16.17;;;;;;;2.17;54.64;99233.61;1771353;80;21553;-59
2021/12/05 11:44:21;;;;;;;19.53;15.03;;;;;;;1.99;54.77;99234.31;1767359;80;21601;-58
2021/12/05 11:46:48;;;;;;;23.00;17.20;;;;;;;1.86;55.51;99228.89;1766643;80;22248;-58
2021/12/05 11:49:21;;;;;;;21.80;17.57;;;;;;;1.83;55.74;99226.33;1764433;80;21442;-57
2021/12/05 11:51:58;;;;;;;22.32;16.65;;;;;;;1.84;56.33;99227.61;1779905;79;21723;-57
2021/12/05 11:54:33;;;;;;;;;;;;;;;1.91;56.36;99224.05;1783333;79;20980;-56
2021/12/05 11:57:11;;;;;;;24.75;17.90;;;;;;;1.92;57.00;99224.48;1774180;80;20415;-59
2021/12/05 11:59:47;;;;;;;25.82;17.12;;;;;;;1.89;56.79;99221.92;1777174;80;21443;-61
2021/12/05 12:02:21;;;;;;;39.40;26.77;;;;;;;1.90;57.17;99226.25;1780790;80;21395;-59
2021/12/05 12:05:25;;;;;;;31.87;21.60;;;;;;;1.95;57.20;99232.66;1775065;80;21849;-59
2021/12/05 12:08:07;;;;;;;27.27;19.75;;;;;;;1.91;57.33;99233.58;1759759;80;21503;-58
2021/12/05 12:10:44;;;;;;;31.27;20.50;;;;;;;1.82;57.53;99240.19;1775020;80;21600;-55
2021/12/05 12:13:20;;;;;;;26.95;19.12;;;;;;;1.80;57.54;99244.53;1775865;80;21482;-59
2021/12/05 12:15:58;;;;;;;24.43;18.12;;;;;;;1.74;57.80;99241.59;1762929;80;21548;-56
2021/12/05 12:18:26;;;;;;;24.10;17.45;;;;;;;1.67;58.28;99250.31;1774171;79;21175;-57
2021/12/05 12:20:48;;;;;;;27.87;19.27;;;;;;;1.55;58.66;99250.89;1769018;80;21112;-57
2021/12/05 12:23:16;;;;;;;23.92;17.07;;;;;;;1.40;59.17;99249.78;1755856;80;21474;-57
2021/12/05 12:25:45;;;;;;;25.27;17.82;;;;;;;1.32;59.49;99246.44;1775233;80;21427;-62
2021/12/05 12:28:13;;;;;;;24.47;17.48;;;;;;;1.26;59.67;99245.19;1775314;80;21426;-57
2021/12/05 12:30:43;;;;;;;25.82;18.67;;;;;;;1.19;59.94;99243.54;1775397;80;22031;-58
2021/12/05 12:33:18;;;;;;;24.75;18.23;;;;;;;1.10;60.03;99240.63;1766977;80;21514;-57
2021/12/05 12:35:47;;;;;;;25.10;18.12;;;;;;;1.00;60.30;99242.47;1772820;80;21475;-57
2021/12/05 12:38:24;;;;;;;23.75;17.52;;;;;;;0.90;60.82;99247.30;1770436;80;21447;-58
2021/12/05 12:41:01;;;;;;;24.57;17.67;;;;;;;0.85;60.94;99251.66;1759523;80;21608;-58
2021/12/05 12:43:49;;;;;;;26.93;19.73;;;;;;;0.78;61.24;99253.02;1742962;80;22091;-58
2021/12/05 12:46:36;;;;;;;;;;;;;;;0.63;61.32;99258.78;1749207;80;21441;-57
2021/12/05 12:49:20;;;;;;;27.82;18.75;;;;;;;0.49;62.01;99251.12;1770928;80;20445;-58
2021/12/05 12:52:07;;;;;;;24.40;18.30;;;;;;;0.30;62.10;99252.58;1752957;80;21609;-56
2021/12/05 12:54:51;;;;;;;27.05;19.32;;;;;;;0.21;62.56;99254.34;1769452;79;21621;-57
2021/12/05 12:57:29;;;;;;;27.87;18.95;;;;;;;0.12;63.17;99253.55;1769890;80;22146;-58
2021/12/05 13:00:09;;;;;;;28.10;20.55;;;;;;;0.06;63.28;99257.48;1761642;80;21628;-57
2021/12/05 13:11:11;;;;;;;31.00;20.50;;;;;;;-0.04;64.02;99273.48;1747276;80;21883;-57
2021/12/05 13:13:40;;;;;;;29.32;21.62;;;;;;;-0.09;64.27;99273.09;1763182;80;21064;-57
2021/12/05 13:16:20;;;;;;;28.60;20.40;;;;;;;-0.13;64.26;99273.53;1694243;82;21616;-58
2021/12/05 13:18:51;;;;;;;31.05;19.90;;;;;;;-0.18;64.59;99273.98;1708417;83;21592;-57
2021/12/05 13:21:35;;;;;;;29.60;21.87;;;;;;;-0.22;64.60;99271.84;1701070;83;21511;-57
2021/12/05 13:23:59;;;;;;;30.55;21.25;;;;;;;-0.29;65.01;99268.86;1697812;83;21870;-57
2021/12/05 13:26:43;;;;;;;33.55;24.25;;;;;;;-0.38;65.28;99273.22;1665840;83;21003;-58
2021/12/05 13:29:15;;;;;;;29.80;21.52;;;;;;;-0.43;65.50;99275.83;1687847;83;21023;-58
2021/12/05 13:32:07;;;;;;;30.05;20.88;;;;;;;-0.52;65.92;99274.14;1687272;83;21633;-56
2021/12/05 13:35:01;;;;;;;30.97;21.73;;;;;;;-0.56;66.06;99284.50;1685901;83;21467;-61
2021/12/05 13:37:38;;;;;;;28.73;20.37;;;;;;;-0.61;66.26;99282.77;1691460;83;21829;-57
2021/12/05 13:40:25;;;;;;;36.87;21.00;;;;;;;-0.62;66.46;99282.80;1686051;83;21499;-57
2021/12/05 13:43:05;;;;;;;32.17;21.60;;;;;;;-0.69;66.98;99278.06;1689453;83;21575;-58
2021/12/05 13:45:36;;;;;;;34.98;21.27;;;;;;;-0.70;66.98;99284.08;1690083;83;21578;-57
2021/12/05 13:48:08;;;;;;;34.50;22.40;;;;;;;-0.70;66.99;99282.79;1687183;83;21554;-58
2021/12/05 13:50:47;;;;;;;37.38;22.87;;;;;;;-0.76;67.26;99287.13;1753141;80;21563;-57
2021/12/05 13:53:19;;;;;;;32.73;22.60;;;;;;;-0.79;67.47;99286.27;1752905;80;21538;-58
2021/12/05 13:56:01;;;;;;;42.17;23.55;;;;;;;-0.83;67.59;99285.86;1755206;80;21522;-56
2021/12/05 14:01:23;;;;;;;36.88;23.25;;;;;;;-0.89;68.23;99291.02;1753846;80;21491;-57
2021/12/05 14:04:03;;;;;;;33.95;23.00;;;;;;;-0.90;68.11;99295.77;1751192;80;21494;-58
2021/12/05 14:06:49;;;;;;;39.83;24.55;;;;;;;-1.01;68.49;99306.09;1755355;80;21474;-58
2021/12/05 14:09:39;;;;;;;35.65;23.67;;;;;;;-1.06;68.77;99305.67;1749584;80;21102;-58
2021/12/05 14:12:30;;;;;;;36.35;23.80;;;;;;;-1.08;69.25;99306.96;1752676;80;21543;-60
2021/12/05 14:15:05;;;;;;;33.28;22.55;;;;;;;-1.11;69.54;99311.27;1751262;80;21473;-60
2021/12/05 14:17:40;;;;;;;33.55;23.27;;;;;;;-1.11;69.67;99304.41;1744465;80;21785;-62
2021/12/05 14:20:11;;;;;;;34.33;24.10;;;;;;;-1.09;69.55;99308.25;1750528;80;21482;-62
2021/12/05 14:22:39;;;;;;;39.60;23.90;;;;;;;-1.10;69.64;99318.16;1766217;80;21411;-62
2021/12/05 14:25:10;;;;;;;36.23;23.73;;;;;;;-1.10;69.74;99317.72;1765300;80;21435;-63
2021/12/05 14:27:41;;;;;;;35.40;24.18;;;;;;;-1.14;69.82;99317.30;1692244;83;21415;-62
2021/12/05 14:30:12;;;;;;;37.13;24.00;;;;;;;-1.18;69.86;99315.14;1723731;82;22020;-62
2021/12/05 14:32:43;;;;;;;38.38;23.52;;;;;;;-1.16;70.00;99311.72;1724943;82;21526;-61
2021/12/05 14:35:23;;;;;;;37.35;23.02;;;;;;;-1.15;70.06;99316.86;1722353;82;21562;-61
2021/12/05 14:37:51;;;;;;;41.75;25.27;;;;;;;-1.18;70.17;99315.14;1717752;82;21550;-62
2021/12/05 14:40:22;;;;;;;36.50;25.15;;;;;;;-1.21;70.26;99318.16;1705433;82;21536;-63
2021/12/05 14:42:51;;;;;;;34.98;23.90;;;;;;;-1.23;70.44;99318.15;1712157;82;21977;-66
2021/12/05 14:45:23;;;;;;;40.88;24.87;;;;;;;-1.26;70.35;99323.33;1723440;82;21602;-62
2021/12/05 14:47:52;;;;;;;41.20;25.43;;;;;;;-1.27;70.62;99325.91;1724449;82;21519;-62
2021/12/05 14:50:23;;;;;;;39.15;24.18;;;;;;;-1.27;70.66;99338.80;1725281;82;21578;-62
2021/12/05 14:52:53;;;;;;;39.13;25.62;;;;;;;-1.27;70.61;99337.08;1708170;82;21563;-62
2021/12/05 14:55:21;;;;;;;40.38;25.85;;;;;;;-1.26;70.79;99339.22;1707528;83;21605;-62
2021/12/05 14:57:59;;;;;;;40.38;24.02;;;;;;;-1.28;70.90;99346.09;1714022;83;21569;-61
2021/12/05 15:00:39;;;;;;;38.08;24.67;;;;;;;-1.28;70.83;99353.43;1703075;82;21516;-60
2021/12/05 15:03:17;;;;;;;37.98;24.75;;;;;;;-1.28;70.78;99358.59;1701783;83;20967;-62
2021/12/05 15:05:56;;;;;;;41.55;26.33;;;;;;;-1.36;70.90;99355.13;1707652;83;21477;-61
2021/12/05 15:08:25;;;;;;;42.30;29.67;;;;;;;-1.37;70.85;99364.59;1705928;83;21853;-61
2021/12/05 15:10:56;;;;;;;38.88;26.23;;;;;;;-1.42;71.05;99365.00;1718898;83;21542;-60
2021/12/05 15:13:25;;;;;;;45.38;26.93;;;;;;;-1.46;71.10;99363.28;1719383;83;21574;-60
2021/12/05 15:15:53;;;;;;;39.50;26.57;;;;;;;-1.50;71.07;99364.59;1719450;83;21612;-61
2021/12/05 15:18:24;;;;;;;39.45;24.98;;;;;;;-1.53;70.93;99377.46;1719783;83;21602;-61
2021/12/05 15:20:51;;;;;;;32.55;21.85;;;;;;;-1.61;71.11;99388.61;1718530;83;22040;-61
2021/12/05 15:23:19;;;;;;;27.05;18.65;;;;;;;-1.70;71.27;99386.01;1721182;82;21440;-61
2021/12/05 15:25:46;;;;;;;26.40;17.87;;;;;;;-1.77;71.36;99388.16;1759691;80;21500;-61
2021/12/05 15:28:14;;;;;;;28.95;17.95;;;;;;;-1.81;71.43;99387.70;1755523;80;21559;-61
2021/12/05 15:30:44;;;;;;;27.77;17.82;;;;;;;-1.82;71.84;99385.99;1747077;80;21577;-61
2021/12/05 15:33:15;;;;;;;28.20;18.17;;;;;;;-1.79;71.78;99383.41;1745905;80;21783;-60
2021/12/05 15:35:43;;;;;;;27.62;18.55;;;;;;;-1.73;71.76;99382.56;1745022;80;20999;-61
2021/12/05 15:38:13;;;;;;;28.75;18.67;;;;;;;-1.72;71.81;99381.28;1763758;80;21669;-60
2021/12/05 15:40:44;;;;;;;29.98;19.55;;;;;;;-1.72;71.93;99380.43;1722569;80;21531;-60
2021/12/05 15:43:15;;;;;;;25.52;17.73;;;;;;;-1.78;72.01;99369.23;1753241;80;21605;-61
2021/12/05 15:45:44;;;;;;;27.32;18.32;;;;;;;-1.79;72.18;99366.24;1751289;80;21995;-61
2021/12/05 15:48:23;;;;;;;27.30;17.62;;;;;;;-1.77;72.25;99363.23;1764575;80;21514;-61
2021/12/05 15:50:51;;;;;;;29.80;19.17;;;;;;;-1.73;72.12;99358.95;1702080;83;21613;-60
2021/12/05 15:53:19;;;;;;;30.62;20.23;;;;;;;-1.71;72.36;99350.80;1752572;80;21443;-60
2021/12/05 15:55:50;;;;;;;30.37;19.20;;;;;;;-1.70;72.29;99351.64;1754191;80;21543;-60
2021/12/05 15:58:30;;;;;;;28.60;19.07;;;;;;;-1.68;72.33;99343.48;1757019;80;21827;-60
2021/12/05 16:00:59;;;;;;;31.25;20.02;;;;;;;-1.66;72.44;99345.19;1746488;80;21514;-61
2021/12/05 16:03:41;;;;;;;30.85;19.52;;;;;;;-1.65;72.33;99346.93;1755392;80;21621;-58
2021/12/05 16:06:08;;;;;;;30.17;20.23;;;;;;;-1.67;72.41;99348.65;1754766;80;21453;-59
2021/12/05 16:08:36;;;;;;;31.82;19.50;;;;;;;-1.66;72.57;99341.33;1764332;80;21479;-59
2021/12/05 16:11:10;;;;;;;30.65;20.10;;;;;;;-1.65;72.48;99339.20;1759821;80;21706;-59
2021/12/05 16:13:41;;;;;;;30.75;19.23;;;;;;;-1.61;72.59;99346.51;1768240;80;21451;-58
2021/12/05 16:16:23;;;;;;;28.90;18.05;;;;;;;-1.61;72.55;99340.91;1761767;80;20976;-59
2021/12/05 16:18:53;;;;;;;25.57;17.17;;;;;;;-1.60;72.41;99339.19;1695830;82;21455;-58
2021/12/05 16:21:32;;;;;;;24.55;17.95;;;;;;;-1.64;72.45;99331.02;1703245;83;21597;-58
2021/12/05 16:24:10;;;;;;;29.50;18.02;;;;;;;-1.67;72.53;99338.34;1700749;83;21767;-60
2021/12/05 16:26:37;;;;;;;27.55;18.07;;;;;;;-1.65;72.60;99336.62;1689776;83;20950;-60
2021/12/05 16:29:07;;;;;;;31.73;19.80;;;;;;;-1.65;72.64;99338.34;1716366;82;21451;-60
2021/12/05 16:31:38;;;;;;;31.60;19.15;;;;;;;-1.66;72.74;99332.74;1711198;83;21602;-60
2021/12/05 16:34:17;;;;;;;29.48;19.17;;;;;;;-1.65;72.76;99339.20;1724986;82;21489;-58
2021/12/05 16:36:53;;;;;;;31.00;19.52;;;;;;;-1.64;72.88;99343.51;1704357;82;21948;-61
2021/12/05 16:39:29;;;;;;;30.52;19.20;;;;;;;-1.63;72.89;99344.36;1711328;83;21547;-58